LFLL/LYS METAR and TAF weather

Enter ICAO airport designator
Station Type Date Time Source
LFLL METAR 2022/01/28 00:00 UTC NOAA

LFLL 280000Z 06001KT 6000 FEW004 BKN008 OVC011 M02/M03 Q1034 TEMPO 4000 BR


Station Type Date Time Source
LFLL Decoded METAR 2022/01/28 00:00 UTC NOAA

Lyon / Satolas, France (LFLL) 45-44N 005-05E 240M
Jan 27, 2022 - 07:00 PM EST / 2022.01.28 0000 UTC
Wind: from the ENE (060 degrees) at 1 MPH (1 KT):0
Visibility: 3 mile(s):0
Sky conditions: overcast
Temperature: 28 F (-2 C)
Dew Point: 26 F (-3 C)
Relative Humidity: 92%
Pressure (altimeter): 30.53 in. Hg (1034 hPa)
ob: LFLL 280000Z 06001KT 6000 FEW004 BKN008 OVC011 M02/M03 Q1034 TEMPO 4000 BR
cycle: 0

Station Type Date Time Source
LFLL TAF 2022/01/27 18:21 UTC NOAA

TAF LFLL 271700Z 2718/2824 36005KT 7000 OVC005
TEMPO 2718/2807 5000 BR OVC004 PROB30
TEMPO 2805/2808 -FZDZ
BECMG 2805/2807 36012KT
BECMG 2812/2814 BKN014

Example: see airport list